Time;durP1;ratioP1;P1;durP2;ratioP2;P2;SDS_P1;SDS_P2;PMS_P1;PMS_P2;Temp;Humidity;BMP_temperature;BMP_pressure;BME280_temperature;BME280_humidity;BME280_pressure;Samples;Min_cycle;Max_cycle;Signal;HPM_P1;HPM_P2
2023/06/09 00:00:49;;;;;;;0.17;0.10;;;;;;;9.43;45.97;102452.91;5037307;28;20132;-75
2023/06/09 00:03:20;;;;;;;2.38;0.90;;;;;;;9.40;46.30;102457.22;5040138;28;20052;-76
2023/06/09 00:05:48;;;;;;;1.20;0.10;;;;;;;9.38;46.20;102448.50;5026806;28;20052;-76
2023/06/09 00:08:15;;;;;;;0.40;0.10;;;;;;;9.39;46.19;102458.97;5039358;28;20055;-76
2023/06/09 00:10:42;;;;;;;3.92;0.20;;;;;;;9.39;46.12;102460.66;5039527;28;20169;-76
2023/06/09 00:13:09;;;;;;;0.68;0.20;;;;;;;9.37;45.98;102451.97;5040716;28;20060;-76
2023/06/09 00:15:36;;;;;;;1.55;0.10;;;;;;;9.36;46.05;102451.09;5039474;28;20122;-76
2023/06/09 00:18:05;;;;;;;0.30;0.10;;;;;;;9.35;46.29;102457.16;5040830;28;20047;-76
2023/06/09 00:20:33;;;;;;;0.20;0.20;;;;;;;9.34;46.36;102454.53;5038575;28;20128;-76
2023/06/09 00:23:00;;;;;;;2.40;0.20;;;;;;;9.33;46.44;102452.75;5038523;28;20341;-76
2023/06/09 00:25:27;;;;;;;0.20;0.10;;;;;;;9.31;46.31;102447.53;5039646;28;20478;-76
2023/06/09 00:27:54;;;;;;;0.30;0.10;;;;;;;9.29;46.32;102454.47;5037725;28;20041;-76
2023/06/09 00:30:22;;;;;;;0.28;0.20;;;;;;;9.30;46.88;102463.16;5034376;28;20041;-76
2023/06/09 00:32:49;;;;;;;0.20;0.10;;;;;;;9.27;46.47;102460.50;5036111;28;20516;-76
2023/06/09 00:35:18;;;;;;;1.38;0.20;;;;;;;9.27;46.56;102465.72;5043229;28;20050;-76
2023/06/09 00:37:46;;;;;;;0.38;0.15;;;;;;;9.24;46.79;102457.00;5040469;28;20058;-76
2023/06/09 00:40:15;;;;;;;0.10;0.05;;;;;;;9.23;47.09;102467.41;5037250;28;20519;-75
2023/06/09 00:42:42;;;;;;;0.57;0.20;;;;;;;9.23;47.04;102464.81;5040739;28;20095;-76
2023/06/09 00:45:09;;;;;;;0.80;0.17;;;;;;;9.21;47.05;102467.38;5036284;28;20095;-76
2023/06/09 00:47:37;;;;;;;3.30;0.10;;;;;;;9.18;47.04;102462.13;5038089;28;20432;-76
2023/06/09 00:50:05;;;;;;;1.55;0.10;;;;;;;9.10;47.40;102458.53;5040057;28;20045;-76
2023/06/09 00:52:33;;;;;;;0.60;0.10;;;;;;;9.16;47.62;102474.28;5036379;28;20042;-76
2023/06/09 00:55:02;;;;;;;3.38;0.10;;;;;;;9.13;47.24;102458.56;5036329;28;20456;-76
2023/06/09 00:57:33;;;;;;;0.20;0.13;;;;;;;9.13;47.56;102473.34;5039250;28;20053;-76
2023/06/09 01:00:01;;;;;;;0.22;0.13;;;;;;;9.06;47.72;102468.91;5035875;28;20048;-76
2023/06/09 01:02:27;;;;;;;0.65;0.10;;;;;;;9.06;47.40;102469.78;5033689;28;20049;-76
2023/06/09 01:04:55;;;;;;;0.08;0.00;;;;;;;9.03;47.92;102471.47;5039213;28;20050;-75
2023/06/09 01:07:33;;;;;;;0.20;0.13;;;;;;;8.99;47.50;102478.34;5035716;28;20060;-76
2023/06/09 01:10:10;;;;;;;0.30;0.10;;;;;;;8.95;47.46;102476.56;5037960;28;20053;-76
2023/06/09 01:12:46;;;;;;;0.68;0.20;;;;;;;8.92;48.00;102484.34;5039954;28;20507;-76
2023/06/09 01:15:18;;;;;;;0.30;0.20;;;;;;;8.88;48.00;102482.50;5041941;28;20772;-75
2023/06/09 01:17:50;;;;;;;0.10;0.10;;;;;;;8.82;47.95;102479.81;5038349;28;20107;-76
2023/06/09 01:20:27;;;;;;;0.20;0.10;;;;;;;8.80;48.33;102490.22;5039639;28;20042;-76
2023/06/09 01:23:04;;;;;;;0.22;0.10;;;;;;;8.76;48.23;102488.41;5038826;28;20048;-76
2023/06/09 01:25:37;;;;;;;1.55;0.20;;;;;;;8.74;48.34;102491.00;5035993;28;20048;-76
2023/06/09 01:28:07;;;;;;;0.20;0.10;;;;;;;8.65;48.52;102490.84;5037108;28;20045;-76
2023/06/09 01:30:36;;;;;;;0.60;0.10;;;;;;;8.69;48.72;102497.84;5035021;28;20044;-75
2023/06/09 01:33:08;;;;;;;0.65;0.20;;;;;;;8.66;48.87;102496.94;5034348;28;20052;-76
2023/06/09 01:35:35;;;;;;;0.43;0.10;;;;;;;8.57;48.63;102492.44;5040271;28;20049;-76
2023/06/09 01:38:03;;;;;;;0.20;0.20;;;;;;;8.62;48.59;102497.72;5038884;28;20154;-76
2023/06/09 01:40:31;;;;;;;0.45;0.10;;;;;;;8.48;48.92;102479.25;5042840;28;20045;-76
2023/06/09 01:43:02;;;;;;;0.20;0.10;;;;;;;8.55;48.82;102491.53;5042258;28;20051;-76
2023/06/09 01:45:29;;;;;;;0.47;0.20;;;;;;;8.32;49.02;102465.94;5038172;28;20045;-76
2023/06/09 01:47:56;;;;;;;1.20;0.20;;;;;;;8.50;49.17;102509.69;5038003;28;20053;-76
2023/06/09 01:50:30;;;;;;;0.40;0.20;;;;;;;8.49;49.10;102509.66;5039073;28;20045;-75
2023/06/09 01:53:02;;;;;;;0.70;0.10;;;;;;;8.45;49.05;102510.44;5038671;28;20044;-75
2023/06/09 01:55:33;;;;;;;1.15;0.10;;;;;;;8.36;49.16;102503.31;5036299;28;20055;-76
2023/06/09 01:58:08;;;;;;;0.20;0.10;;;;;;;8.39;49.51;102508.59;5041030;28;20474;-76
2023/06/09 02:00:35;;;;;;;0.20;0.10;;;;;;;8.36;49.48;102510.25;5032181;28;20056;-76
2023/06/09 02:03:06;;;;;;;0.47;0.17;;;;;;;8.32;49.38;102507.59;5041153;28;20045;-76
2023/06/09 02:05:36;;;;;;;1.08;0.28;;;;;;;8.28;49.63;102511.00;5037964;28;20475;-76
2023/06/09 02:08:05;;;;;;;0.40;0.20;;;;;;;8.27;49.80;102514.44;5037094;28;20544;-76
2023/06/09 02:10:32;;;;;;;0.40;0.15;;;;;;;8.25;49.56;102504.84;5037745;28;20384;-76
2023/06/09 02:13:11;;;;;;;0.38;0.20;;;;;;;8.23;49.65;102517.84;5035630;28;20057;-76
2023/06/09 02:15:40;;;;;;;0.20;0.15;;;;;;;8.20;49.95;102512.56;5035971;28;20051;-78
2023/06/09 02:18:10;;;;;;;0.32;0.20;;;;;;;8.11;49.50;102507.16;5041290;28;20048;-76
2023/06/09 02:20:37;;;;;;;0.30;0.20;;;;;;;8.07;49.80;102503.63;5036071;28;20056;-76
2023/06/09 02:23:04;;;;;;;0.35;0.20;;;;;;;8.13;50.00;102515.91;5034243;28;20052;-76
2023/06/09 02:25:32;;;;;;;0.20;0.20;;;;;;;8.11;50.47;102520.19;5033638;28;20382;-76
2023/06/09 02:27:59;;;;;;;0.65;0.10;;;;;;;8.08;50.34;102517.53;5034343;28;20053;-75
2023/06/09 02:30:26;;;;;;;0.47;0.20;;;;;;;8.11;50.37;102522.78;5036692;28;20132;-76
2023/06/09 02:32:55;;;;;;;0.75;0.75;;;;;;;8.04;50.14;102516.59;5039237;28;20045;-75
2023/06/09 02:35:22;;;;;;;0.43;0.20;;;;;;;8.12;50.46;102529.75;5036231;28;20061;-76
2023/06/09 02:37:49;;;;;;;2.25;0.13;;;;;;;8.13;50.33;102534.13;5035924;28;20178;-76
2023/06/09 02:40:16;;;;;;;0.63;0.20;;;;;;;8.14;50.61;102528.09;5039836;28;20048;-76
2023/06/09 02:42:43;;;;;;;0.30;0.20;;;;;;;8.15;50.61;102529.81;5035117;28;20077;-76
2023/06/09 02:45:10;;;;;;;0.52;0.10;;;;;;;8.15;50.62;102535.03;5036542;28;20049;-76
2023/06/09 02:47:37;;;;;;;1.80;0.20;;;;;;;8.17;50.70;102535.94;5032827;28;20045;-76
2023/06/09 02:50:07;;;;;;;2.10;0.20;;;;;;;8.14;50.71;102525.47;5036117;28;20477;-76
2023/06/09 02:52:34;;;;;;;2.00;0.20;;;;;;;8.17;50.66;102527.22;5037589;28;20358;-76
2023/06/09 02:55:02;;;;;;;3.80;0.20;;;;;;;8.20;50.85;102533.41;5039476;28;20045;-73
2023/06/09 02:57:30;;;;;;;0.43;0.10;;;;;;;8.17;50.95;102528.13;5035613;28;20067;-73
2023/06/09 02:59:58;;;;;;;4.88;0.35;;;;;;;8.17;51.40;102516.81;5038597;28;20053;-73
2023/06/09 03:02:26;;;;;;;0.40;0.20;;;;;;;8.26;51.27;102540.44;5043820;28;20095;-74
2023/06/09 03:04:54;;;;;;;2.05;0.17;;;;;;;8.28;50.97;102539.63;5039789;28;20442;-77
2023/06/09 03:07:22;;;;;;;0.95;0.20;;;;;;;8.29;51.49;102540.50;5040451;28;20041;-78
2023/06/09 03:09:49;;;;;;;1.08;0.20;;;;;;;8.33;51.27;102542.31;5044019;28;20045;-77
2023/06/09 03:12:16;;;;;;;0.30;0.20;;;;;;;8.36;51.45;102544.09;5042078;28;20053;-78
2023/06/09 03:14:43;;;;;;;2.92;0.20;;;;;;;8.38;51.62;102547.63;5037610;28;20055;-78
2023/06/09 03:17:10;;;;;;;0.30;0.20;;;;;;;8.40;51.55;102551.16;5040140;28;20060;-77
2023/06/09 03:19:37;;;;;;;0.47;0.20;;;;;;;8.45;51.57;102554.72;5040276;28;20042;-77
2023/06/09 03:22:04;;;;;;;2.20;0.22;;;;;;;8.42;51.65;102541.63;5043850;28;20362;-77
2023/06/09 03:24:33;;;;;;;0.60;0.20;;;;;;;8.49;51.84;102551.34;5039682;28;20053;-78
2023/06/09 03:27:00;;;;;;;0.50;0.22;;;;;;;8.51;51.90;102550.53;5043370;28;20056;-78
2023/06/09 03:29:28;;;;;;;0.20;0.10;;;;;;;8.59;52.13;102553.25;5042208;28;20047;-78
2023/06/09 03:31:55;;;;;;;0.63;0.20;;;;;;;8.56;51.69;102550.59;5039703;28;20053;-78
2023/06/09 03:34:23;;;;;;;0.73;0.20;;;;;;;8.67;52.05;102562.06;5039979;28;20056;-78
2023/06/09 03:36:50;;;;;;;0.32;0.20;;;;;;;8.69;52.17;102565.59;5040102;28;20064;-77
2023/06/09 03:39:17;;;;;;;0.20;0.20;;;;;;;8.74;52.58;102561.34;5034800;28;20052;-78
2023/06/09 03:41:46;;;;;;;0.70;0.30;;;;;;;8.71;52.46;102542.19;5040812;28;20041;-78
2023/06/09 03:44:13;;;;;;;0.40;0.20;;;;;;;8.87;52.51;102565.03;5036981;28;20416;-78
2023/06/09 03:46:40;;;;;;;1.17;0.15;;;;;;;8.92;52.62;102565.13;5040965;28;20399;-79
2023/06/09 03:49:07;;;;;;;0.40;0.20;;;;;;;8.98;52.39;102562.63;5042196;28;20566;-78
2023/06/09 03:51:33;;;;;;;0.80;0.20;;;;;;;8.98;53.08;102557.41;5042185;28;20048;-78
2023/06/09 03:54:00;;;;;;;0.50;0.20;;;;;;;9.13;52.75;102562.84;5041067;28;20056;-78
2023/06/09 03:56:27;;;;;;;0.95;0.20;;;;;;;9.22;52.75;102563.03;5040732;28;20152;-79
2023/06/09 03:58:56;;;;;;;0.73;0.30;;;;;;;9.30;52.93;102564.88;5040119;28;20085;-78
2023/06/09 04:01:25;;;;;;;2.90;0.25;;;;;;;9.23;52.28;102538.69;5038370;28;20041;-78
2023/06/09 04:03:52;;;;;;;1.17;0.20;;;;;;;9.44;52.62;102559.00;5041918;28;20055;-78
2023/06/09 04:06:19;;;;;;;0.45;0.20;;;;;;;9.59;52.32;102563.59;5039726;28;20521;-79
2023/06/09 04:08:46;;;;;;;1.40;0.30;;;;;;;9.69;52.14;102567.19;5045729;28;20569;-78
2023/06/09 04:11:13;;;;;;;0.40;0.15;;;;;;;9.76;52.63;102560.31;5039910;28;20063;-79
2023/06/09 04:13:40;;;;;;;1.00;0.65;;;;;;;9.90;52.45;102561.38;5041169;28;20049;-79
2023/06/09 04:16:08;;;;;;;0.20;0.10;;;;;;;10.01;52.46;102567.59;5037399;28;20529;-78
2023/06/09 04:18:35;;;;;;;0.57;0.20;;;;;;;10.12;52.23;102571.22;5041342;28;20051;-79
2023/06/09 04:21:02;;;;;;;1.42;0.10;;;;;;;10.25;51.63;102568.78;5038603;28;20493;-79
2023/06/09 04:23:29;;;;;;;0.43;0.17;;;;;;;10.38;51.79;102570.69;5043871;28;20051;-79
2023/06/09 04:25:56;;;;;;;0.70;0.25;;;;;;;10.51;51.17;102574.31;5041777;28;20527;-79
2023/06/09 04:28:23;;;;;;;0.25;0.17;;;;;;;10.65;51.29;102570.13;5040519;28;20043;-80
2023/06/09 04:30:50;;;;;;;0.52;0.40;;;;;;;10.80;50.53;102570.25;5035568;28;20996;-79
2023/06/09 04:33:19;;;;;;;1.02;0.20;;;;;;;10.94;50.98;102570.38;5038459;28;20047;-79
2023/06/09 04:35:46;;;;;;;4.28;0.20;;;;;;;11.09;50.13;102573.97;5036744;28;20055;-80
2023/06/09 04:38:14;;;;;;;0.80;0.30;;;;;;;11.23;50.11;102568.00;5035946;28;20475;-79
2023/06/09 04:40:41;;;;;;;0.32;0.20;;;;;;;11.38;49.94;102564.59;5035997;28;20060;-80
2023/06/09 04:43:09;;;;;;;1.10;0.30;;;;;;;11.52;50.06;102558.59;5040500;28;20072;-80
2023/06/09 04:45:36;;;;;;;1.00;0.20;;;;;;;11.77;49.47;102575.31;5040503;28;20095;-80
2023/06/09 04:48:04;;;;;;;0.25;0.10;;;;;;;11.92;49.59;102578.03;5038661;28;20089;-83
2023/06/09 04:50:33;;;;;;;3.70;0.20;;;;;;;12.11;48.23;102569.41;5042000;28;20041;-82
2023/06/09 04:53:03;;;;;;;0.30;0.20;;;;;;;12.33;47.78;102572.97;5040326;28;20061;-81
2023/06/09 04:55:31;;;;;;;0.43;0.20;;;;;;;12.52;47.82;102568.66;5041137;28;20497;-80
2023/06/09 04:57:58;;;;;;;1.20;0.20;;;;;;;12.63;47.56;102554.69;5039839;28;20127;-81
2023/06/09 05:00:27;;;;;;;2.58;0.20;;;;;;;12.82;47.00;102562.56;5043046;28;20398;-80
2023/06/09 05:02:54;;;;;;;0.30;0.20;;;;;;;13.04;46.40;102567.84;5044854;28;20122;-81
2023/06/09 05:05:21;;;;;;;2.20;0.10;;;;;;;13.16;45.91;102556.47;5038188;28;20044;-81
2023/06/09 05:07:50;;;;;;;0.77;0.20;;;;;;;13.41;45.82;102568.72;5038621;28;20060;-81
2023/06/09 05:10:17;;;;;;;0.28;0.20;;;;;;;13.45;45.72;102551.19;5039065;28;20051;-82
2023/06/09 05:12:44;;;;;;;1.13;0.20;;;;;;;13.66;44.48;102564.28;5041490;28;20126;-80
2023/06/09 05:15:12;;;;;;;0.63;0.10;;;;;;;13.89;44.42;102572.09;5039782;28;20394;-80
2023/06/09 05:17:41;;;;;;;0.30;0.20;;;;;;;14.05;43.58;102577.28;5040593;28;20051;-79
2023/06/09 05:20:09;;;;;;;1.08;0.20;;;;;;;14.18;43.35;102574.59;5039288;28;20044;-79
2023/06/09 05:22:37;;;;;;;0.88;0.20;;;;;;;14.20;43.38;102550.91;5035043;28;20484;-80
2023/06/09 05:25:08;;;;;;;0.77;0.20;;;;;;;14.47;43.05;102575.31;5040382;28;20147;-79
2023/06/09 05:27:35;;;;;;;0.20;0.10;;;;;;;14.55;42.71;102576.19;5038683;28;20037;-82
2023/06/09 05:30:02;;;;;;;1.63;0.30;;;;;;;14.77;41.89;102584.78;5040895;28;20044;-82
2023/06/09 05:32:29;;;;;;;0.90;0.25;;;;;;;14.93;41.29;102578.53;5036325;28;20073;-81
2023/06/09 05:34:56;;;;;;;2.15;0.28;;;;;;;15.03;41.27;102572.31;5043682;28;20062;-83
2023/06/09 05:37:23;;;;;;;0.52;0.22;;;;;;;15.14;40.75;102584.50;5039042;28;20748;-79
2023/06/09 05:39:50;;;;;;;1.42;0.20;;;;;;;15.18;40.10;102570.44;5039423;28;20511;-81
2023/06/09 05:42:18;;;;;;;1.05;0.20;;;;;;;15.35;40.14;102581.69;5038699;28;20056;-80
2023/06/09 05:44:45;;;;;;;0.40;0.20;;;;;;;15.42;40.07;102586.00;5036975;28;20493;-79
2023/06/09 05:47:12;;;;;;;0.60;0.30;;;;;;;15.39;39.73;102572.00;5041696;28;20048;-81
2023/06/09 05:49:39;;;;;;;2.30;0.20;;;;;;;15.58;39.47;102591.13;5040060;28;20037;-80
2023/06/09 05:52:06;;;;;;;0.40;0.20;;;;;;;15.65;39.48;102590.16;5037694;28;20048;-79
2023/06/09 05:54:33;;;;;;;0.30;0.20;;;;;;;15.70;38.78;102591.91;5038648;28;20049;-81
2023/06/09 05:57:03;;;;;;;1.27;0.20;;;;;;;15.75;38.78;102599.75;5036500;28;20096;-79
2023/06/09 05:59:32;;;;;;;1.55;0.20;;;;;;;15.77;38.78;102587.44;5038299;28;20103;-78
2023/06/09 06:02:00;;;;;;;0.22;0.13;;;;;;;15.84;38.94;102597.00;5039107;28;20508;-78
2023/06/09 06:04:28;;;;;;;0.38;0.20;;;;;;;15.89;38.51;102596.97;5039664;28;20049;-78
2023/06/09 06:06:55;;;;;;;0.20;0.10;;;;;;;15.93;38.55;102604.81;5040640;28;20218;-78
2023/06/09 06:09:22;;;;;;;0.30;0.17;;;;;;;15.97;38.34;102595.13;5038346;28;20065;-80
2023/06/09 06:11:49;;;;;;;0.40;0.13;;;;;;;15.99;38.50;102598.59;5040922;28;20049;-79
2023/06/09 06:14:16;;;;;;;2.95;0.20;;;;;;;16.03;38.36;102610.00;5037340;28;20444;-79
2023/06/09 06:16:44;;;;;;;0.73;0.20;;;;;;;16.00;38.21;102599.50;5035584;28;20056;-81
2023/06/09 06:19:12;;;;;;;0.10;0.10;;;;;;;16.01;37.57;102617.03;5038265;28;20051;-80
2023/06/09 06:21:41;;;;;;;0.85;0.30;;;;;;;15.96;38.04;102612.69;5039262;28;20042;-85
2023/06/09 06:24:08;;;;;;;0.82;0.10;;;;;;;15.92;37.54;102608.34;5039022;28;20056;-80
2023/06/09 06:26:35;;;;;;;0.28;0.10;;;;;;;15.92;37.49;102618.88;5039401;28;20107;-79
2023/06/09 06:29:03;;;;;;;1.70;0.10;;;;;;;15.88;37.63;102611.91;5039813;28;20153;-77
2023/06/09 06:31:30;;;;;;;0.88;0.17;;;;;;;15.90;37.61;102622.44;5039015;28;20390;-77
2023/06/09 06:33:59;;;;;;;0.10;0.10;;;;;;;15.89;37.58;102618.06;5039824;28;20132;-79
2023/06/09 06:36:27;;;;;;;1.88;0.20;;;;;;;15.89;37.48;102621.56;5036916;28;20044;-76
2023/06/09 06:38:54;;;;;;;0.38;0.20;;;;;;;15.83;37.19;102616.38;5039379;28;20128;-80
2023/06/09 06:41:21;;;;;;;3.15;0.10;;;;;;;15.92;37.36;102623.28;5038197;28;20518;-78
2023/06/09 06:43:49;;;;;;;1.15;0.10;;;;;;;15.80;37.12;102592.69;5038538;28;20056;-79
2023/06/09 06:46:17;;;;;;;2.08;0.20;;;;;;;16.02;37.18;102624.03;5036383;28;20067;-82
2023/06/09 06:48:44;;;;;;;2.17;0.10;;;;;;;16.05;37.20;102624.91;5038671;28;20908;-81
2023/06/09 06:51:13;;;;;;;0.88;0.10;;;;;;;16.13;37.28;102632.69;5036911;28;20068;-81
2023/06/09 06:53:40;;;;;;;0.40;0.20;;;;;;;16.18;36.91;102629.13;5039461;28;20047;-81
2023/06/09 06:56:07;;;;;;;0.10;0.10;;;;;;;16.24;37.17;102635.22;5039308;28;20158;-82
2023/06/09 06:58:34;;;;;;;0.35;0.10;;;;;;;16.44;36.79;102643.75;5040762;28;20048;-79
2023/06/09 07:01:02;;;;;;;1.42;0.20;;;;;;;16.54;36.46;102642.75;5040490;28;20062;-77
2023/06/09 07:03:29;;;;;;;0.25;0.10;;;;;;;16.65;36.13;102642.59;5038819;28;20057;-84
2023/06/09 07:05:57;;;;;;;0.43;0.10;;;;;;;16.77;36.43;102642.44;5036094;28;20132;-81
2023/06/09 07:08:25;;;;;;;3.70;0.28;;;;;;;16.90;36.76;102650.16;5040030;28;20041;-80
2023/06/09 07:10:52;;;;;;;0.38;0.10;;;;;;;16.97;36.55;102644.78;5034101;28;20042;-85
2023/06/09 07:13:19;;;;;;;0.20;0.13;;;;;;;17.03;36.11;102636.75;5040780;28;20052;-84
2023/06/09 07:15:46;;;;;;;0.13;0.10;;;;;;;17.17;36.50;102651.53;5033622;28;20068;-79
2023/06/09 07:18:13;;;;;;;0.10;0.10;;;;;;;17.34;36.41;102653.91;5036345;28;20500;-77
2023/06/09 07:20:40;;;;;;;0.73;0.20;;;;;;;17.42;36.20;102642.31;5035796;28;20052;-78
2023/06/09 07:23:07;;;;;;;0.10;0.10;;;;;;;17.60;36.59;102656.09;5024149;28;20149;-80
2023/06/09 07:25:35;;;;;;;0.55;0.10;;;;;;;17.73;35.44;102663.78;5036198;28;20731;-77
2023/06/09 07:28:02;;;;;;;1.80;0.10;;;;;;;17.87;35.00;102657.38;5031078;28;20049;-78
2023/06/09 07:30:29;;;;;;;1.10;0.10;;;;;;;17.97;35.56;102666.88;5030506;28;20041;-80
2023/06/09 07:32:56;;;;;;;0.20;0.10;;;;;;;18.01;35.19;102655.31;5036415;28;20051;-80
2023/06/09 07:35:23;;;;;;;0.03;0.00;;;;;;;18.10;34.61;102649.88;5039041;28;20052;-78
2023/06/09 07:37:50;;;;;;;0.30;0.10;;;;;;;18.26;34.39;102668.06;5040520;28;20129;-78
2023/06/09 07:40:18;;;;;;;0.10;0.10;;;;;;;18.30;34.18;102662.69;5036886;28;20045;-78
2023/06/09 07:42:46;;;;;;;0.10;0.10;;;;;;;18.37;33.93;102666.06;5037036;28;20037;-77
2023/06/09 07:45:13;;;;;;;0.20;0.10;;;;;;;18.39;33.65;102665.13;5033661;28;20045;-78
2023/06/09 07:47:40;;;;;;;1.73;0.10;;;;;;;18.48;33.81;102669.38;5044334;28;20036;-78
2023/06/09 07:50:08;;;;;;;0.52;0.10;;;;;;;18.54;33.57;102661.28;5041946;28;20132;-78
2023/06/09 07:52:38;;;;;;;0.10;0.10;;;;;;;18.59;33.68;102667.34;5047396;28;20056;-77
2023/06/09 07:55:07;;;;;;;0.45;0.00;;;;;;;18.65;33.59;102663.72;5042954;28;20053;-78
2023/06/09 07:57:34;;;;;;;0.10;0.10;;;;;;;18.73;33.30;102674.13;5045757;28;20119;-77
2023/06/09 08:00:05;;;;;;;0.60;0.00;;;;;;;18.76;33.31;102663.50;5049134;28;20147;-76
2023/06/09 08:02:32;;;;;;;1.10;0.00;;;;;;;18.72;33.34;102653.84;5042098;28;20124;-77
2023/06/09 08:05:01;;;;;;;0.30;0.00;;;;;;;18.83;33.06;102673.03;5044533;28;20042;-76
2023/06/09 08:07:28;;;;;;;0.10;0.00;;;;;;;18.76;33.21;102663.50;5044810;28;20053;-77
2023/06/09 08:09:56;;;;;;;0.10;0.00;;;;;;;18.86;33.23;102683.56;5044257;28;20100;-78
2023/06/09 08:12:23;;;;;;;0.10;0.00;;;;;;;18.88;32.63;102687.06;5043479;28;20721;-77
2023/06/09 08:14:50;;;;;;;0.77;0.00;;;;;;;18.74;32.78;102660.88;5038732;28;20051;-77
2023/06/09 08:17:18;;;;;;;0.10;0.00;;;;;;;18.94;32.91;102684.25;5039405;28;20834;-76
2023/06/09 08:19:45;;;;;;;0.00;0.00;;;;;;;18.86;32.54;102672.97;5043199;28;20045;-78
2023/06/09 08:22:12;;;;;;;0.00;0.00;;;;;;;18.96;32.02;102686.88;5038530;28;20049;-76
2023/06/09 08:24:39;;;;;;;0.20;0.00;;;;;;;18.94;32.06;102688.69;5043874;28;20041;-77
2023/06/09 08:27:07;;;;;;;0.00;0.00;;;;;;;18.83;31.77;102675.69;5037552;28;20124;-77
2023/06/09 08:29:36;;;;;;;0.43;0.00;;;;;;;18.87;31.85;102694.13;5046466;28;20045;-76
2023/06/09 08:32:03;;;;;;;0.05;0.00;;;;;;;18.86;31.78;102699.44;5043246;28;20049;-76
2023/06/09 08:34:31;;;;;;;0.00;0.00;;;;;;;18.84;32.05;102691.56;5039913;28;20045;-77
2023/06/09 08:36:58;;;;;;;2.25;0.00;;;;;;;18.84;32.22;102698.59;5037825;28;20057;-76
2023/06/09 08:39:25;;;;;;;0.00;0.00;;;;;;;18.79;31.93;102714.59;5045664;28;20041;-77
2023/06/09 08:41:55;;;;;;;0.00;0.00;;;;;;;18.71;32.13;102708.56;5039440;28;20041;-77
2023/06/09 08:44:27;;;;;;;2.10;0.00;;;;;;;18.63;31.93;102714.03;5040394;28;20041;-78
2023/06/09 08:46:57;;;;;;;0.00;0.00;;;;;;;18.58;31.65;102707.94;5042539;28;20053;-77
2023/06/09 08:49:24;;;;;;;0.88;0.00;;;;;;;18.37;31.65;102681.94;5041756;28;20532;-77
2023/06/09 08:51:53;;;;;;;2.08;0.00;;;;;;;18.47;32.16;102704.69;5041197;28;20041;-79
2023/06/09 08:54:20;;;;;;;0.15;0.00;;;;;;;18.47;32.04;102719.66;5041324;28;20103;-79
2023/06/09 08:56:48;;;;;;;1.85;0.00;;;;;;;18.44;31.71;102720.59;5039018;28;20048;-78
2023/06/09 08:59:16;;;;;;;1.88;0.00;;;;;;;18.43;32.00;102716.22;5042371;28;20071;-77
2023/06/09 09:01:43;;;;;;;1.58;0.00;;;;;;;18.44;31.88;102720.59;5041827;28;20045;-77
2023/06/09 09:04:10;;;;;;;0.00;0.00;;;;;;;18.41;31.65;102721.56;5042009;28;20045;-77
2023/06/09 09:06:39;;;;;;;0.00;0.00;;;;;;;18.39;31.37;102712.78;5037527;28;20049;-77
2023/06/09 09:09:07;;;;;;;0.00;0.00;;;;;;;18.39;31.50;102723.34;5039441;28;20045;-77
2023/06/09 09:11:34;;;;;;;0.00;0.00;;;;;;;18.36;31.03;102720.78;5038590;28;20424;-77
2023/06/09 09:14:10;;;;;;;0.20;0.00;;;;;;;18.37;30.98;102719.84;5040473;28;20397;-79
2023/06/09 09:16:37;;;;;;;0.00;0.00;;;;;;;18.36;30.96;102730.50;5040509;28;20056;-80
2023/06/09 09:19:05;;;;;;;0.00;0.00;;;;;;;18.35;31.07;102723.44;5047573;28;20141;-78
2023/06/09 09:21:37;;;;;;;0.00;0.00;;;;;;;18.35;30.76;102732.22;5041481;28;20514;-76
2023/06/09 09:24:06;;;;;;;0.00;0.00;;;;;;;18.27;30.51;102715.66;5035084;28;20052;-79
2023/06/09 09:26:34;;;;;;;1.85;0.00;;;;;;;18.26;30.45;102726.25;5042116;28;20118;-77
2023/06/09 09:29:05;;;;;;;0.00;0.00;;;;;;;18.23;30.85;102728.97;5042626;28;20052;-76
2023/06/09 09:31:33;;;;;;;0.10;0.00;;;;;;;18.25;30.80;102729.81;5042047;28;20048;-77
2023/06/09 09:34:00;;;;;;;0.00;0.00;;;;;;;18.16;30.69;102704.44;5036042;28;20141;-77
2023/06/09 09:36:27;;;;;;;0.10;0.00;;;;;;;18.25;30.60;102725.41;5042442;28;20052;-76
2023/06/09 09:38:56;;;;;;;0.00;0.00;;;;;;;18.23;30.07;102724.56;5039807;28;20050;-77
2023/06/09 09:41:23;;;;;;;0.00;0.00;;;;;;;18.04;30.21;102705.50;5041160;28;20037;-80
2023/06/09 09:43:57;;;;;;;0.90;0.00;;;;;;;18.09;30.33;102705.44;5042536;28;20048;-76
2023/06/09 09:46:24;;;;;;;0.00;0.00;;;;;;;18.15;30.78;102722.03;5048750;28;20049;-81
2023/06/09 09:48:54;;;;;;;0.00;0.00;;;;;;;18.18;31.37;102723.75;5045308;28;20052;-82
2023/06/09 09:51:21;;;;;;;0.00;0.00;;;;;;;18.17;31.23;102722.91;5032899;28;20076;-81
2023/06/09 09:53:50;;;;;;;0.10;0.00;;;;;;;18.15;31.55;102727.34;5044471;28;20049;-81
2023/06/09 09:56:21;;;;;;;0.08;0.00;;;;;;;18.15;31.91;102726.47;5046919;28;20107;-81
2023/06/09 09:58:52;;;;;;;0.00;0.00;;;;;;;18.14;31.54;102736.19;5041476;28;20472;-81
2023/06/09 10:01:24;;;;;;;0.00;0.00;;;;;;;18.07;31.74;102737.22;5048835;28;20076;-82
2023/06/09 10:03:54;;;;;;;0.00;0.00;;;;;;;18.07;31.52;102736.31;5043542;28;20103;-81
2023/06/09 10:06:27;;;;;;;0.00;0.00;;;;;;;18.05;31.86;102741.66;5039673;28;20053;-81
2023/06/09 10:08:55;;;;;;;0.00;0.00;;;;;;;17.98;31.33;102721.50;5043899;28;20485;-81
2023/06/09 10:11:23;;;;;;;0.00;0.00;;;;;;;18.08;31.88;102735.44;5044508;28;20443;-81
2023/06/09 10:13:50;;;;;;;0.00;0.00;;;;;;;18.09;31.31;102745.09;5045116;28;20057;-81
2023/06/09 10:16:18;;;;;;;0.30;0.00;;;;;;;18.04;31.34;102728.44;5042848;28;20053;-82
2023/06/09 10:18:49;;;;;;;0.20;0.00;;;;;;;17.97;31.78;102727.69;5046259;28;20037;-82
2023/06/09 10:21:17;;;;;;;0.00;0.00;;;;;;;17.94;31.59;102722.47;5044037;28;20132;-82
2023/06/09 10:23:44;;;;;;;0.00;0.00;;;;;;;18.02;32.04;102738.19;5045832;28;20049;-85
2023/06/09 10:26:11;;;;;;;0.40;0.00;;;;;;;18.03;32.04;102739.94;5043407;28;20040;-83
2023/06/09 10:28:38;;;;;;;0.10;0.00;;;;;;;17.99;32.06;102744.41;5048729;28;20053;-84
2023/06/09 10:31:11;;;;;;;0.00;0.00;;;;;;;17.84;31.48;102710.28;5044726;28;20046;-84
2023/06/09 10:33:41;;;;;;;0.00;0.00;;;;;;;17.90;31.84;102745.44;5041766;28;20037;-83
2023/06/09 10:36:10;;;;;;;0.10;0.00;;;;;;;17.70;31.45;102713.16;5034678;28;20049;-84
2023/06/09 10:38:42;;;;;;;0.10;0.00;;;;;;;17.81;31.45;102736.78;5046042;28;20140;-84
2023/06/09 10:41:15;;;;;;;0.00;0.00;;;;;;;17.67;31.97;102724.66;5043672;28;20044;-84
2023/06/09 10:44:07;;;;;;;0.00;0.00;;;;;;;17.60;31.88;102704.50;5041771;28;20151;-86
2023/06/09 10:46:42;;;;;;;0.00;0.00;;;;;;;17.73;31.63;102739.53;5046038;28;20077;-85
2023/06/09 10:49:39;;;;;;;0.10;0.00;;;;;;;17.67;31.63;102740.53;5042817;28;20117;-84
2023/06/09 10:52:10;;;;;;;0.00;0.00;;;;;;;17.48;32.50;102710.00;5036594;28;20064;-83
2023/06/09 10:54:37;;;;;;;0.10;0.00;;;;;;;17.59;32.37;102734.50;5044871;28;20079;-86
2023/06/09 10:57:06;;;;;;;1.65;0.00;;;;;;;17.58;32.47;102730.09;5042996;28;20076;-86
2023/06/09 11:00:09;;;;;;;0.00;0.00;;;;;;;17.60;32.42;102725.66;5049286;28;20413;-85
2023/06/09 11:02:36;;;;;;;0.80;0.00;;;;;;;17.55;32.04;102730.13;5044197;28;20125;-85
2023/06/09 11:05:04;;;;;;;1.95;0.00;;;;;;;17.49;32.02;102719.69;5045747;28;20052;-86
2023/06/09 11:07:41;;;;;;;0.00;0.00;;;;;;;17.45;32.21;102725.91;5042136;28;20134;-85
2023/06/09 11:10:37;;;;;;;0.00;0.00;;;;;;;17.44;32.47;102730.31;5039738;28;21019;-85
2023/06/09 11:13:39;;;;;;;0.30;0.00;;;;;;;17.46;32.40;102728.53;5048074;28;20105;-85
2023/06/09 11:16:06;;;;;;;0.00;0.00;;;;;;;17.46;32.02;102725.88;5048807;28;20049;-85
2023/06/09 11:18:33;;;;;;;0.00;0.00;;;;;;;17.49;31.68;102728.47;5050221;28;20049;-85
2023/06/09 11:21:23;;;;;;;0.15;0.00;;;;;;;17.54;32.05;102725.75;5049519;28;20037;-84
2023/06/09 11:24:05;;;;;;;0.00;0.00;;;;;;;17.54;32.08;102725.75;5053858;28;20053;-85
2023/06/09 11:26:33;;;;;;;0.00;0.00;;;;;;;17.52;32.20;102723.13;5044028;28;20052;-86
2023/06/09 11:29:03;;;;;;;0.55;0.00;;;;;;;17.50;32.07;102718.75;5048327;28;20103;-85
2023/06/09 11:31:48;;;;;;;0.08;0.00;;;;;;;17.50;32.94;102718.75;5046601;28;20625;-84
2023/06/09 11:34:55;;;;;;;0.10;0.00;;;;;;;17.58;32.80;102716.88;5046689;28;20053;-85
2023/06/09 11:37:24;;;;;;;0.00;0.00;;;;;;;17.55;32.85;102716.94;5053756;28;20064;-84